sensor_id;sensor_type;location;lat;lon;timestamp;P1;durP1;ratioP1;P2;durP2;ratioP2
32705;SDS011;19094;50.972;3.538;2024-01-30T00:01:44;19.23;;;9.80;;
32705;SDS011;19094;50.972;3.538;2024-01-30T00:04:10;17.08;;;9.65;;
32705;SDS011;19094;50.972;3.538;2024-01-30T00:06:35;19.10;;;9.38;;
32705;SDS011;19094;50.972;3.538;2024-01-30T00:09:01;20.92;;;9.70;;
32705;SDS011;19094;50.972;3.538;2024-01-30T00:11:27;18.48;;;10.10;;
32705;SDS011;19094;50.972;3.538;2024-01-30T00:13:54;17.27;;;9.45;;
32705;SDS011;19094;50.972;3.538;2024-01-30T00:16:21;18.67;;;9.52;;
32705;SDS011;19094;50.972;3.538;2024-01-30T00:18:49;17.33;;;9.68;;
32705;SDS011;19094;50.972;3.538;2024-01-30T00:21:18;16.45;;;9.70;;
32705;SDS011;19094;50.972;3.538;2024-01-30T00:23:44;17.58;;;9.65;;
32705;SDS011;19094;50.972;3.538;2024-01-30T00:26:10;14.48;;;9.05;;
32705;SDS011;19094;50.972;3.538;2024-01-30T00:28:36;15.82;;;9.23;;
32705;SDS011;19094;50.972;3.538;2024-01-30T00:31:03;18.90;;;9.68;;
32705;SDS011;19094;50.972;3.538;2024-01-30T00:33:29;16.08;;;9.50;;
32705;SDS011;19094;50.972;3.538;2024-01-30T00:35:55;15.52;;;9.20;;
32705;SDS011;19094;50.972;3.538;2024-01-30T00:38:21;15.27;;;9.70;;
32705;SDS011;19094;50.972;3.538;2024-01-30T00:40:47;15.30;;;9.88;;
32705;SDS011;19094;50.972;3.538;2024-01-30T00:43:13;21.92;;;10.20;;
32705;SDS011;19094;50.972;3.538;2024-01-30T00:45:40;16.40;;;9.60;;
32705;SDS011;19094;50.972;3.538;2024-01-30T00:48:06;20.23;;;9.88;;
32705;SDS011;19094;50.972;3.538;2024-01-30T00:50:32;19.20;;;9.70;;
32705;SDS011;19094;50.972;3.538;2024-01-30T00:52:58;17.73;;;9.70;;
32705;SDS011;19094;50.972;3.538;2024-01-30T00:55:23;18.27;;;9.43;;
32705;SDS011;19094;50.972;3.538;2024-01-30T00:57:49;18.13;;;10.07;;
32705;SDS011;19094;50.972;3.538;2024-01-30T01:00:15;17.48;;;9.40;;
32705;SDS011;19094;50.972;3.538;2024-01-30T01:02:42;20.98;;;9.93;;
32705;SDS011;19094;50.972;3.538;2024-01-30T01:05:08;18.00;;;9.93;;
32705;SDS011;19094;50.972;3.538;2024-01-30T01:07:34;17.58;;;9.68;;
32705;SDS011;19094;50.972;3.538;2024-01-30T01:10:00;17.75;;;9.35;;
32705;SDS011;19094;50.972;3.538;2024-01-30T01:12:26;17.35;;;9.60;;
32705;SDS011;19094;50.972;3.538;2024-01-30T01:14:51;16.70;;;9.77;;
32705;SDS011;19094;50.972;3.538;2024-01-30T01:17:17;16.33;;;9.32;;
32705;SDS011;19094;50.972;3.538;2024-01-30T01:19:43;17.13;;;9.80;;
32705;SDS011;19094;50.972;3.538;2024-01-30T01:22:09;19.02;;;9.70;;
32705;SDS011;19094;50.972;3.538;2024-01-30T01:24:35;18.48;;;9.77;;
32705;SDS011;19094;50.972;3.538;2024-01-30T01:27:01;16.65;;;9.88;;
32705;SDS011;19094;50.972;3.538;2024-01-30T01:29:28;17.63;;;9.80;;
32705;SDS011;19094;50.972;3.538;2024-01-30T01:31:57;18.75;;;9.90;;
32705;SDS011;19094;50.972;3.538;2024-01-30T01:34:23;21.55;;;10.48;;
32705;SDS011;19094;50.972;3.538;2024-01-30T01:36:50;16.75;;;10.45;;
32705;SDS011;19094;50.972;3.538;2024-01-30T01:39:16;18.83;;;10.07;;
32705;SDS011;19094;50.972;3.538;2024-01-30T01:41:42;16.42;;;9.98;;
32705;SDS011;19094;50.972;3.538;2024-01-30T01:44:08;19.27;;;11.18;;
32705;SDS011;19094;50.972;3.538;2024-01-30T01:46:34;19.83;;;10.68;;
32705;SDS011;19094;50.972;3.538;2024-01-30T01:49:00;18.77;;;10.57;;
32705;SDS011;19094;50.972;3.538;2024-01-30T01:51:28;19.65;;;11.38;;
32705;SDS011;19094;50.972;3.538;2024-01-30T01:53:56;22.00;;;11.30;;
32705;SDS011;19094;50.972;3.538;2024-01-30T01:56:23;16.00;;;9.88;;
32705;SDS011;19094;50.972;3.538;2024-01-30T01:58:51;17.73;;;10.45;;
32705;SDS011;19094;50.972;3.538;2024-01-30T02:01:19;27.00;;;10.98;;
32705;SDS011;19094;50.972;3.538;2024-01-30T02:03:45;20.98;;;10.65;;
32705;SDS011;19094;50.972;3.538;2024-01-30T02:06:12;17.17;;;10.50;;
32705;SDS011;19094;50.972;3.538;2024-01-30T02:08:39;20.25;;;10.50;;
32705;SDS011;19094;50.972;3.538;2024-01-30T02:11:06;18.15;;;10.35;;
32705;SDS011;19094;50.972;3.538;2024-01-30T02:13:32;16.42;;;10.38;;
32705;SDS011;19094;50.972;3.538;2024-01-30T02:15:58;15.10;;;9.68;;
32705;SDS011;19094;50.972;3.538;2024-01-30T02:18:23;18.17;;;9.77;;
32705;SDS011;19094;50.972;3.538;2024-01-30T02:20:49;22.08;;;11.30;;
32705;SDS011;19094;50.972;3.538;2024-01-30T02:23:18;24.50;;;10.15;;
32705;SDS011;19094;50.972;3.538;2024-01-30T02:25:45;16.38;;;10.02;;
32705;SDS011;19094;50.972;3.538;2024-01-30T02:28:11;20.60;;;11.35;;
32705;SDS011;19094;50.972;3.538;2024-01-30T02:30:40;17.95;;;10.05;;
32705;SDS011;19094;50.972;3.538;2024-01-30T02:33:07;18.48;;;9.68;;
32705;SDS011;19094;50.972;3.538;2024-01-30T02:35:33;20.90;;;10.77;;
32705;SDS011;19094;50.972;3.538;2024-01-30T02:37:59;16.00;;;10.02;;
32705;SDS011;19094;50.972;3.538;2024-01-30T02:40:25;17.70;;;10.45;;
32705;SDS011;19094;50.972;3.538;2024-01-30T02:42:50;15.20;;;9.55;;
32705;SDS011;19094;50.972;3.538;2024-01-30T02:45:16;17.70;;;10.30;;
32705;SDS011;19094;50.972;3.538;2024-01-30T02:47:42;17.98;;;10.65;;
32705;SDS011;19094;50.972;3.538;2024-01-30T02:50:08;21.73;;;10.82;;
32705;SDS011;19094;50.972;3.538;2024-01-30T02:52:34;16.58;;;10.38;;
32705;SDS011;19094;50.972;3.538;2024-01-30T02:55:00;19.65;;;10.20;;
32705;SDS011;19094;50.972;3.538;2024-01-30T02:57:26;17.92;;;9.95;;
32705;SDS011;19094;50.972;3.538;2024-01-30T02:59:51;17.48;;;10.82;;
32705;SDS011;19094;50.972;3.538;2024-01-30T03:02:17;19.25;;;10.45;;
32705;SDS011;19094;50.972;3.538;2024-01-30T03:04:43;23.20;;;9.90;;
32705;SDS011;19094;50.972;3.538;2024-01-30T03:07:09;20.58;;;11.43;;
32705;SDS011;19094;50.972;3.538;2024-01-30T03:09:36;16.95;;;10.38;;
32705;SDS011;19094;50.972;3.538;2024-01-30T03:12:02;18.00;;;10.88;;
32705;SDS011;19094;50.972;3.538;2024-01-30T03:14:30;19.20;;;10.57;;
32705;SDS011;19094;50.972;3.538;2024-01-30T03:16:57;17.40;;;10.35;;
32705;SDS011;19094;50.972;3.538;2024-01-30T03:19:22;17.95;;;11.18;;
32705;SDS011;19094;50.972;3.538;2024-01-30T03:21:48;17.02;;;10.90;;
32705;SDS011;19094;50.972;3.538;2024-01-30T03:24:14;19.83;;;10.50;;
32705;SDS011;19094;50.972;3.538;2024-01-30T03:26:40;19.00;;;10.85;;
32705;SDS011;19094;50.972;3.538;2024-01-30T03:29:05;17.20;;;10.60;;
32705;SDS011;19094;50.972;3.538;2024-01-30T03:31:31;20.10;;;11.30;;
32705;SDS011;19094;50.972;3.538;2024-01-30T03:33:57;20.60;;;11.45;;
32705;SDS011;19094;50.972;3.538;2024-01-30T03:36:23;19.02;;;11.50;;
32705;SDS011;19094;50.972;3.538;2024-01-30T03:38:48;26.30;;;11.75;;
32705;SDS011;19094;50.972;3.538;2024-01-30T03:41:14;23.00;;;11.13;;
32705;SDS011;19094;50.972;3.538;2024-01-30T03:43:40;22.65;;;11.45;;
32705;SDS011;19094;50.972;3.538;2024-01-30T03:46:06;20.17;;;10.90;;
32705;SDS011;19094;50.972;3.538;2024-01-30T03:48:32;20.05;;;11.15;;
32705;SDS011;19094;50.972;3.538;2024-01-30T03:50:57;17.50;;;10.82;;
32705;SDS011;19094;50.972;3.538;2024-01-30T03:53:23;22.85;;;10.52;;
32705;SDS011;19094;50.972;3.538;2024-01-30T03:55:49;20.58;;;11.10;;
32705;SDS011;19094;50.972;3.538;2024-01-30T03:58:14;21.48;;;11.30;;
32705;SDS011;19094;50.972;3.538;2024-01-30T04:00:40;25.58;;;10.90;;
32705;SDS011;19094;50.972;3.538;2024-01-30T04:03:06;20.58;;;11.38;;
32705;SDS011;19094;50.972;3.538;2024-01-30T04:05:32;19.85;;;11.63;;
32705;SDS011;19094;50.972;3.538;2024-01-30T04:07:58;24.08;;;11.32;;
32705;SDS011;19094;50.972;3.538;2024-01-30T04:10:24;19.60;;;11.45;;
32705;SDS011;19094;50.972;3.538;2024-01-30T04:12:50;20.27;;;11.25;;
32705;SDS011;19094;50.972;3.538;2024-01-30T04:15:16;22.08;;;11.27;;
32705;SDS011;19094;50.972;3.538;2024-01-30T04:17:43;19.42;;;11.27;;
32705;SDS011;19094;50.972;3.538;2024-01-30T04:20:15;22.00;;;11.65;;
32705;SDS011;19094;50.972;3.538;2024-01-30T04:22:44;19.83;;;11.32;;
32705;SDS011;19094;50.972;3.538;2024-01-30T04:25:10;16.10;;;11.10;;
32705;SDS011;19094;50.972;3.538;2024-01-30T04:27:36;19.02;;;11.38;;
32705;SDS011;19094;50.972;3.538;2024-01-30T04:30:01;18.63;;;10.40;;
32705;SDS011;19094;50.972;3.538;2024-01-30T04:32:27;19.55;;;11.30;;
32705;SDS011;19094;50.972;3.538;2024-01-30T04:34:53;21.95;;;11.90;;
32705;SDS011;19094;50.972;3.538;2024-01-30T04:37:18;28.33;;;11.82;;
32705;SDS011;19094;50.972;3.538;2024-01-30T04:39:44;21.40;;;11.15;;
32705;SDS011;19094;50.972;3.538;2024-01-30T04:42:09;22.25;;;10.63;;
32705;SDS011;19094;50.972;3.538;2024-01-30T04:44:35;19.10;;;11.52;;
32705;SDS011;19094;50.972;3.538;2024-01-30T04:47:01;19.90;;;10.52;;
32705;SDS011;19094;50.972;3.538;2024-01-30T04:49:27;23.20;;;11.43;;
32705;SDS011;19094;50.972;3.538;2024-01-30T04:51:54;21.70;;;11.00;;
32705;SDS011;19094;50.972;3.538;2024-01-30T04:54:19;20.45;;;10.68;;
32705;SDS011;19094;50.972;3.538;2024-01-30T04:56:45;17.70;;;10.30;;
32705;SDS011;19094;50.972;3.538;2024-01-30T04:59:11;25.75;;;11.25;;
32705;SDS011;19094;50.972;3.538;2024-01-30T05:01:37;20.48;;;10.25;;
32705;SDS011;19094;50.972;3.538;2024-01-30T05:04:02;19.95;;;10.93;;
32705;SDS011;19094;50.972;3.538;2024-01-30T05:06:28;18.48;;;10.02;;
32705;SDS011;19094;50.972;3.538;2024-01-30T05:08:54;16.30;;;10.82;;
32705;SDS011;19094;50.972;3.538;2024-01-30T05:11:20;19.25;;;10.98;;
32705;SDS011;19094;50.972;3.538;2024-01-30T05:13:46;19.13;;;10.82;;
32705;SDS011;19094;50.972;3.538;2024-01-30T05:16:12;17.60;;;10.98;;
32705;SDS011;19094;50.972;3.538;2024-01-30T05:18:38;22.02;;;10.80;;
32705;SDS011;19094;50.972;3.538;2024-01-30T05:21:04;30.83;;;11.98;;
32705;SDS011;19094;50.972;3.538;2024-01-30T05:23:30;20.33;;;12.40;;
32705;SDS011;19094;50.972;3.538;2024-01-30T05:25:56;19.73;;;10.68;;
32705;SDS011;19094;50.972;3.538;2024-01-30T05:28:22;23.40;;;11.77;;
32705;SDS011;19094;50.972;3.538;2024-01-30T05:30:47;22.33;;;11.10;;
32705;SDS011;19094;50.972;3.538;2024-01-30T05:33:13;17.67;;;10.43;;
32705;SDS011;19094;50.972;3.538;2024-01-30T05:35:39;21.60;;;10.80;;
32705;SDS011;19094;50.972;3.538;2024-01-30T05:38:04;21.55;;;11.13;;
32705;SDS011;19094;50.972;3.538;2024-01-30T05:40:30;20.77;;;10.75;;
32705;SDS011;19094;50.972;3.538;2024-01-30T05:42:56;18.52;;;10.50;;
32705;SDS011;19094;50.972;3.538;2024-01-30T05:45:25;18.33;;;11.13;;
32705;SDS011;19094;50.972;3.538;2024-01-30T05:47:51;18.50;;;10.88;;
32705;SDS011;19094;50.972;3.538;2024-01-30T05:50:17;20.13;;;10.85;;
32705;SDS011;19094;50.972;3.538;2024-01-30T05:52:44;20.52;;;11.40;;
32705;SDS011;19094;50.972;3.538;2024-01-30T05:55:10;19.40;;;11.43;;
32705;SDS011;19094;50.972;3.538;2024-01-30T05:57:37;18.50;;;10.55;;
32705;SDS011;19094;50.972;3.538;2024-01-30T06:00:03;22.08;;;11.73;;
32705;SDS011;19094;50.972;3.538;2024-01-30T06:02:30;21.45;;;11.15;;
32705;SDS011;19094;50.972;3.538;2024-01-30T06:04:56;23.73;;;11.07;;
32705;SDS011;19094;50.972;3.538;2024-01-30T06:07:21;22.25;;;11.63;;
32705;SDS011;19094;50.972;3.538;2024-01-30T06:09:47;23.38;;;11.80;;
32705;SDS011;19094;50.972;3.538;2024-01-30T06:12:13;19.17;;;11.30;;
32705;SDS011;19094;50.972;3.538;2024-01-30T06:14:39;21.67;;;11.00;;
32705;SDS011;19094;50.972;3.538;2024-01-30T06:17:04;19.23;;;11.23;;
32705;SDS011;19094;50.972;3.538;2024-01-30T06:19:30;21.75;;;11.73;;
32705;SDS011;19094;50.972;3.538;2024-01-30T06:21:56;17.88;;;10.65;;
32705;SDS011;19094;50.972;3.538;2024-01-30T06:24:22;36.10;;;16.70;;
32705;SDS011;19094;50.972;3.538;2024-01-30T06:26:48;35.17;;;15.20;;
32705;SDS011;19094;50.972;3.538;2024-01-30T06:29:13;24.50;;;12.65;;
32705;SDS011;19094;50.972;3.538;2024-01-30T06:31:42;18.17;;;11.65;;
32705;SDS011;19094;50.972;3.538;2024-01-30T06:34:08;20.40;;;11.55;;
32705;SDS011;19094;50.972;3.538;2024-01-30T06:36:36;24.20;;;11.05;;
32705;SDS011;19094;50.972;3.538;2024-01-30T06:39:02;24.08;;;10.88;;
32705;SDS011;19094;50.972;3.538;2024-01-30T06:41:28;20.60;;;10.40;;
32705;SDS011;19094;50.972;3.538;2024-01-30T06:43:53;18.77;;;11.75;;
32705;SDS011;19094;50.972;3.538;2024-01-30T06:46:19;21.75;;;11.32;;
32705;SDS011;19094;50.972;3.538;2024-01-30T06:48:45;27.10;;;11.63;;
32705;SDS011;19094;50.972;3.538;2024-01-30T06:51:11;26.67;;;11.82;;
32705;SDS011;19094;50.972;3.538;2024-01-30T06:53:37;20.33;;;10.90;;
32705;SDS011;19094;50.972;3.538;2024-01-30T06:56:03;22.65;;;12.43;;
32705;SDS011;19094;50.972;3.538;2024-01-30T06:58:29;19.05;;;10.23;;
32705;SDS011;19094;50.972;3.538;2024-01-30T07:00:55;22.92;;;12.10;;
32705;SDS011;19094;50.972;3.538;2024-01-30T07:03:21;23.75;;;13.98;;
32705;SDS011;19094;50.972;3.538;2024-01-30T07:05:46;43.72;;;22.92;;
32705;SDS011;19094;50.972;3.538;2024-01-30T07:08:12;23.55;;;12.45;;
32705;SDS011;19094;50.972;3.538;2024-01-30T07:10:38;28.30;;;12.90;;
32705;SDS011;19094;50.972;3.538;2024-01-30T07:13:03;19.75;;;12.02;;
32705;SDS011;19094;50.972;3.538;2024-01-30T07:15:30;21.88;;;10.90;;
32705;SDS011;19094;50.972;3.538;2024-01-30T07:17:56;24.60;;;11.63;;
32705;SDS011;19094;50.972;3.538;2024-01-30T07:20:22;23.52;;;11.68;;
32705;SDS011;19094;50.972;3.538;2024-01-30T07:22:48;21.67;;;10.80;;
32705;SDS011;19094;50.972;3.538;2024-01-30T07:25:14;23.77;;;11.93;;
32705;SDS011;19094;50.972;3.538;2024-01-30T07:27:41;18.95;;;11.10;;
32705;SDS011;19094;50.972;3.538;2024-01-30T07:30:07;25.65;;;12.32;;
32705;SDS011;19094;50.972;3.538;2024-01-30T07:32:33;23.33;;;10.57;;
32705;SDS011;19094;50.972;3.538;2024-01-30T07:34:59;21.85;;;11.18;;
32705;SDS011;19094;50.972;3.538;2024-01-30T07:37:24;20.30;;;11.07;;
32705;SDS011;19094;50.972;3.538;2024-01-30T07:39:50;21.10;;;11.43;;
32705;SDS011;19094;50.972;3.538;2024-01-30T07:42:15;24.33;;;11.95;;
32705;SDS011;19094;50.972;3.538;2024-01-30T07:44:42;35.13;;;12.57;;
32705;SDS011;19094;50.972;3.538;2024-01-30T07:47:08;30.38;;;12.40;;
32705;SDS011;19094;50.972;3.538;2024-01-30T07:49:34;22.25;;;11.70;;
32705;SDS011;19094;50.972;3.538;2024-01-30T07:51:59;25.45;;;12.27;;
32705;SDS011;19094;50.972;3.538;2024-01-30T07:54:25;25.10;;;12.35;;
32705;SDS011;19094;50.972;3.538;2024-01-30T07:56:51;31.85;;;12.50;;
32705;SDS011;19094;50.972;3.538;2024-01-30T07:59:17;23.15;;;11.68;;
32705;SDS011;19094;50.972;3.538;2024-01-30T08:01:44;18.27;;;11.25;;
32705;SDS011;19094;50.972;3.538;2024-01-30T08:04:10;29.58;;;11.73;;
32705;SDS011;19094;50.972;3.538;2024-01-30T08:06:35;20.63;;;11.48;;
32705;SDS011;19094;50.972;3.538;2024-01-30T08:09:01;24.38;;;13.48;;
32705;SDS011;19094;50.972;3.538;2024-01-30T08:11:27;25.85;;;13.18;;
32705;SDS011;19094;50.972;3.538;2024-01-30T08:13:54;34.33;;;12.38;;
32705;SDS011;19094;50.972;3.538;2024-01-30T08:16:20;23.23;;;12.13;;
32705;SDS011;19094;50.972;3.538;2024-01-30T08:18:46;25.95;;;12.45;;
32705;SDS011;19094;50.972;3.538;2024-01-30T08:21:12;21.05;;;11.60;;
32705;SDS011;19094;50.972;3.538;2024-01-30T08:23:38;20.75;;;11.85;;
32705;SDS011;19094;50.972;3.538;2024-01-30T08:26:04;22.85;;;12.50;;
32705;SDS011;19094;50.972;3.538;2024-01-30T08:28:30;30.85;;;13.00;;
32705;SDS011;19094;50.972;3.538;2024-01-30T08:30:56;25.40;;;12.88;;
32705;SDS011;19094;50.972;3.538;2024-01-30T08:33:22;29.33;;;13.30;;
32705;SDS011;19094;50.972;3.538;2024-01-30T08:35:48;23.65;;;11.82;;
32705;SDS011;19094;50.972;3.538;2024-01-30T08:38:14;22.42;;;10.05;;
32705;SDS011;19094;50.972;3.538;2024-01-30T08:40:39;22.02;;;9.90;;
32705;SDS011;19094;50.972;3.538;2024-01-30T08:43:05;21.63;;;7.22;;
32705;SDS011;19094;50.972;3.538;2024-01-30T08:45:31;18.52;;;6.85;;
32705;SDS011;19094;50.972;3.538;2024-01-30T08:47:56;16.05;;;6.75;;
32705;SDS011;19094;50.972;3.538;2024-01-30T08:50:22;16.27;;;6.50;;
32705;SDS011;19094;50.972;3.538;2024-01-30T08:52:48;17.08;;;6.93;;
32705;SDS011;19094;50.972;3.538;2024-01-30T08:55:13;20.55;;;6.15;;
32705;SDS011;19094;50.972;3.538;2024-01-30T08:57:39;12.55;;;5.00;;
32705;SDS011;19094;50.972;3.538;2024-01-30T09:00:05;11.90;;;4.43;;
32705;SDS011;19094;50.972;3.538;2024-01-30T09:02:34;15.63;;;5.25;;
32705;SDS011;19094;50.972;3.538;2024-01-30T09:04:59;11.30;;;3.70;;
32705;SDS011;19094;50.972;3.538;2024-01-30T09:07:25;7.85;;;3.25;;
32705;SDS011;19094;50.972;3.538;2024-01-30T09:09:51;11.80;;;3.60;;
32705;SDS011;19094;50.972;3.538;2024-01-30T09:12:16;8.75;;;3.13;;
32705;SDS011;19094;50.972;3.538;2024-01-30T09:14:42;23.45;;;3.70;;
32705;SDS011;19094;50.972;3.538;2024-01-30T09:17:08;8.43;;;2.97;;
32705;SDS011;19094;50.972;3.538;2024-01-30T09:19:34;11.38;;;2.63;;
32705;SDS011;19094;50.972;3.538;2024-01-30T09:21:59;8.30;;;2.63;;
32705;SDS011;19094;50.972;3.538;2024-01-30T09:24:26;10.27;;;2.35;;
32705;SDS011;19094;50.972;3.538;2024-01-30T09:26:52;5.38;;;1.90;;
32705;SDS011;19094;50.972;3.538;2024-01-30T09:29:17;9.07;;;2.10;;
32705;SDS011;19094;50.972;3.538;2024-01-30T09:31:44;7.10;;;2.10;;
32705;SDS011;19094;50.972;3.538;2024-01-30T09:34:13;10.07;;;2.33;;
32705;SDS011;19094;50.972;3.538;2024-01-30T09:36:38;8.35;;;2.42;;
32705;SDS011;19094;50.972;3.538;2024-01-30T09:39:04;5.80;;;2.28;;
32705;SDS011;19094;50.972;3.538;2024-01-30T09:41:36;4.63;;;2.03;;
32705;SDS011;19094;50.972;3.538;2024-01-30T09:44:31;8.50;;;2.28;;
32705;SDS011;19094;50.972;3.538;2024-01-30T09:46:59;8.02;;;1.75;;
32705;SDS011;19094;50.972;3.538;2024-01-30T09:49:29;6.65;;;1.48;;
32705;SDS011;19094;50.972;3.538;2024-01-30T09:51:59;10.20;;;1.73;;
32705;SDS011;19094;50.972;3.538;2024-01-30T09:54:25;3.17;;;1.13;;
32705;SDS011;19094;50.972;3.538;2024-01-30T09:56:51;3.58;;;0.70;;
32705;SDS011;19094;50.972;3.538;2024-01-30T09:59:17;5.57;;;0.90;;
32705;SDS011;19094;50.972;3.538;2024-01-30T10:01:42;6.22;;;0.80;;
32705;SDS011;19094;50.972;3.538;2024-01-30T10:04:09;8.68;;;0.95;;
32705;SDS011;19094;50.972;3.538;2024-01-30T10:06:35;6.82;;;1.33;;
32705;SDS011;19094;50.972;3.538;2024-01-30T10:09:01;1.67;;;0.52;;
32705;SDS011;19094;50.972;3.538;2024-01-30T10:11:27;5.80;;;0.77;;
32705;SDS011;19094;50.972;3.538;2024-01-30T10:13:52;4.30;;;1.05;;
32705;SDS011;19094;50.972;3.538;2024-01-30T10:16:18;3.10;;;0.98;;
32705;SDS011;19094;50.972;3.538;2024-01-30T10:18:44;12.13;;;1.85;;
32705;SDS011;19094;50.972;3.538;2024-01-30T10:21:10;4.70;;;1.48;;
32705;SDS011;19094;50.972;3.538;2024-01-30T10:23:35;8.20;;;1.67;;
32705;SDS011;19094;50.972;3.538;2024-01-30T10:26:06;4.95;;;1.50;;
32705;SDS011;19094;50.972;3.538;2024-01-30T10:28:32;5.20;;;1.17;;
32705;SDS011;19094;50.972;3.538;2024-01-30T10:31:02;7.70;;;1.90;;
32705;SDS011;19094;50.972;3.538;2024-01-30T10:33:31;13.40;;;2.05;;
32705;SDS011;19094;50.972;3.538;2024-01-30T10:36:00;4.47;;;1.48;;
32705;SDS011;19094;50.972;3.538;2024-01-30T10:38:31;6.97;;;1.20;;
32705;SDS011;19094;50.972;3.538;2024-01-30T10:40:58;8.07;;;1.60;;
32705;SDS011;19094;50.972;3.538;2024-01-30T10:43:31;4.13;;;1.30;;
32705;SDS011;19094;50.972;3.538;2024-01-30T10:46:11;8.65;;;1.38;;
32705;SDS011;19094;50.972;3.538;2024-01-30T10:48:46;8.65;;;1.20;;
32705;SDS011;19094;50.972;3.538;2024-01-30T10:51:17;6.55;;;1.63;;
32705;SDS011;19094;50.972;3.538;2024-01-30T10:53:45;8.88;;;1.60;;
32705;SDS011;19094;50.972;3.538;2024-01-30T10:56:12;7.72;;;1.90;;
32705;SDS011;19094;50.972;3.538;2024-01-30T10:58:38;6.57;;;1.35;;
32705;SDS011;19094;50.972;3.538;2024-01-30T11:01:05;8.32;;;1.50;;
32705;SDS011;19094;50.972;3.538;2024-01-30T11:03:32;6.57;;;1.42;;
32705;SDS011;19094;50.972;3.538;2024-01-30T11:06:01;8.15;;;1.77;;
32705;SDS011;19094;50.972;3.538;2024-01-30T11:08:27;4.32;;;1.27;;
32705;SDS011;19094;50.972;3.538;2024-01-30T11:10:57;6.55;;;1.10;;
32705;SDS011;19094;50.972;3.538;2024-01-30T11:13:30;5.30;;;1.30;;
32705;SDS011;19094;50.972;3.538;2024-01-30T11:16:03;7.88;;;1.50;;
32705;SDS011;19094;50.972;3.538;2024-01-30T11:18:30;10.38;;;1.75;;
32705;SDS011;19094;50.972;3.538;2024-01-30T11:20:57;6.45;;;1.42;;
32705;SDS011;19094;50.972;3.538;2024-01-30T11:23:25;11.15;;;1.83;;
32705;SDS011;19094;50.972;3.538;2024-01-30T11:25:55;5.03;;;1.30;;
32705;SDS011;19094;50.972;3.538;2024-01-30T11:28:22;5.63;;;1.25;;
32705;SDS011;19094;50.972;3.538;2024-01-30T11:30:48;3.60;;;1.13;;
32705;SDS011;19094;50.972;3.538;2024-01-30T11:33:16;2.97;;;1.00;;
32705;SDS011;19094;50.972;3.538;2024-01-30T11:35:56;2.53;;;1.00;;
32705;SDS011;19094;50.972;3.538;2024-01-30T11:38:25;5.15;;;1.42;;
32705;SDS011;19094;50.972;3.538;2024-01-30T11:40:52;3.65;;;1.23;;
32705;SDS011;19094;50.972;3.538;2024-01-30T11:43:24;3.63;;;1.20;;
32705;SDS011;19094;50.972;3.538;2024-01-30T11:45:50;2.45;;;1.23;;
32705;SDS011;19094;50.972;3.538;2024-01-30T11:48:16;5.15;;;1.25;;
32705;SDS011;19094;50.972;3.538;2024-01-30T11:50:42;5.15;;;1.27;;
32705;SDS011;19094;50.972;3.538;2024-01-30T11:53:11;7.07;;;1.83;;
32705;SDS011;19094;50.972;3.538;2024-01-30T11:55:37;4.03;;;1.60;;
32705;SDS011;19094;50.972;3.538;2024-01-30T11:58:03;3.67;;;1.08;;
32705;SDS011;19094;50.972;3.538;2024-01-30T12:00:29;8.70;;;1.40;;
32705;SDS011;19094;50.972;3.538;2024-01-30T12:02:58;7.15;;;1.67;;
32705;SDS011;19094;50.972;3.538;2024-01-30T12:05:26;12.35;;;2.00;;
32705;SDS011;19094;50.972;3.538;2024-01-30T12:07:52;6.82;;;1.70;;
32705;SDS011;19094;50.972;3.538;2024-01-30T12:10:18;9.27;;;1.40;;
32705;SDS011;19094;50.972;3.538;2024-01-30T12:12:50;6.22;;;1.42;;
32705;SDS011;19094;50.972;3.538;2024-01-30T12:15:16;9.07;;;1.67;;
32705;SDS011;19094;50.972;3.538;2024-01-30T12:17:43;4.75;;;1.08;;
32705;SDS011;19094;50.972;3.538;2024-01-30T12:20:12;6.97;;;1.50;;
32705;SDS011;19094;50.972;3.538;2024-01-30T12:25:09;8.90;;;1.20;;
32705;SDS011;19094;50.972;3.538;2024-01-30T12:27:35;5.72;;;1.38;;
32705;SDS011;19094;50.972;3.538;2024-01-30T12:30:09;9.95;;;1.50;;
32705;SDS011;19094;50.972;3.538;2024-01-30T12:32:36;8.10;;;1.40;;
32705;SDS011;19094;50.972;3.538;2024-01-30T12:35:14;4.53;;;0.82;;
32705;SDS011;19094;50.972;3.538;2024-01-30T12:37:41;3.08;;;1.02;;
32705;SDS011;19094;50.972;3.538;2024-01-30T12:40:08;6.55;;;1.17;;
32705;SDS011;19094;50.972;3.538;2024-01-30T12:42:35;4.88;;;2.13;;
32705;SDS011;19094;50.972;3.538;2024-01-30T12:45:04;31.63;;;3.90;;
32705;SDS011;19094;50.972;3.538;2024-01-30T12:47:30;59.45;;;7.72;;
32705;SDS011;19094;50.972;3.538;2024-01-30T12:49:56;6.03;;;1.45;;
32705;SDS011;19094;50.972;3.538;2024-01-30T12:52:22;6.45;;;1.35;;
32705;SDS011;19094;50.972;3.538;2024-01-30T12:54:49;3.55;;;1.30;;
32705;SDS011;19094;50.972;3.538;2024-01-30T12:57:15;7.35;;;1.33;;
32705;SDS011;19094;50.972;3.538;2024-01-30T12:59:41;5.85;;;1.20;;
32705;SDS011;19094;50.972;3.538;2024-01-30T13:02:07;5.68;;;1.60;;
32705;SDS011;19094;50.972;3.538;2024-01-30T13:04:34;6.88;;;1.50;;
32705;SDS011;19094;50.972;3.538;2024-01-30T13:07:00;14.80;;;1.33;;
32705;SDS011;19094;50.972;3.538;2024-01-30T13:09:26;5.93;;;1.20;;
32705;SDS011;19094;50.972;3.538;2024-01-30T13:11:52;4.82;;;1.10;;
32705;SDS011;19094;50.972;3.538;2024-01-30T13:14:18;8.55;;;1.65;;
32705;SDS011;19094;50.972;3.538;2024-01-30T13:16:44;10.02;;;1.23;;
32705;SDS011;19094;50.972;3.538;2024-01-30T13:19:10;11.52;;;1.80;;
32705;SDS011;19094;50.972;3.538;2024-01-30T13:21:36;8.07;;;1.92;;
32705;SDS011;19094;50.972;3.538;2024-01-30T13:24:02;8.38;;;1.55;;
32705;SDS011;19094;50.972;3.538;2024-01-30T13:26:28;6.82;;;1.60;;
32705;SDS011;19094;50.972;3.538;2024-01-30T13:28:56;5.28;;;1.52;;
32705;SDS011;19094;50.972;3.538;2024-01-30T13:31:21;8.95;;;2.33;;
32705;SDS011;19094;50.972;3.538;2024-01-30T13:33:47;4.97;;;1.92;;
32705;SDS011;19094;50.972;3.538;2024-01-30T13:36:14;19.70;;;6.05;;
32705;SDS011;19094;50.972;3.538;2024-01-30T13:38:41;7.65;;;2.13;;
32705;SDS011;19094;50.972;3.538;2024-01-30T13:41:06;5.15;;;1.58;;
32705;SDS011;19094;50.972;3.538;2024-01-30T13:43:32;4.50;;;1.33;;
32705;SDS011;19094;50.972;3.538;2024-01-30T13:45:58;10.45;;;1.70;;
32705;SDS011;19094;50.972;3.538;2024-01-30T13:48:24;5.35;;;1.52;;
32705;SDS011;19094;50.972;3.538;2024-01-30T13:50:50;4.13;;;1.35;;
32705;SDS011;19094;50.972;3.538;2024-01-30T13:53:16;3.55;;;1.20;;
32705;SDS011;19094;50.972;3.538;2024-01-30T13:55:41;8.00;;;1.33;;
32705;SDS011;19094;50.972;3.538;2024-01-30T13:58:07;9.25;;;1.45;;
32705;SDS011;19094;50.972;3.538;2024-01-30T14:00:33;5.40;;;1.70;;
32705;SDS011;19094;50.972;3.538;2024-01-30T14:02:59;5.90;;;1.45;;
32705;SDS011;19094;50.972;3.538;2024-01-30T14:05:25;11.32;;;1.80;;
32705;SDS011;19094;50.972;3.538;2024-01-30T14:07:53;6.40;;;1.75;;
32705;SDS011;19094;50.972;3.538;2024-01-30T14:10:19;4.38;;;1.77;;
32705;SDS011;19094;50.972;3.538;2024-01-30T14:12:45;11.15;;;2.00;;
32705;SDS011;19094;50.972;3.538;2024-01-30T14:15:13;9.35;;;1.88;;
32705;SDS011;19094;50.972;3.538;2024-01-30T14:17:40;9.93;;;2.22;;
32705;SDS011;19094;50.972;3.538;2024-01-30T14:20:06;8.25;;;2.00;;
32705;SDS011;19094;50.972;3.538;2024-01-30T14:22:36;9.52;;;2.33;;
32705;SDS011;19094;50.972;3.538;2024-01-30T14:25:02;6.65;;;1.70;;
32705;SDS011;19094;50.972;3.538;2024-01-30T14:27:31;6.35;;;2.30;;
32705;SDS011;19094;50.972;3.538;2024-01-30T14:29:57;9.27;;;2.20;;
32705;SDS011;19094;50.972;3.538;2024-01-30T14:32:23;5.63;;;2.08;;